Time;durP1;ratioP1;P1;durP2;ratioP2;P2;SDS_P1;SDS_P2;PMS_P1;PMS_P2;Temp;Humidity;BMP_temperature;BMP_pressure;BME280_temperature;BME280_humidity;BME280_pressure;Samples;Min_cycle;Max_cycle;Signal;HPM_P1;HPM_P2
2021/09/14 00:00:19;;;;;;;8.65;5.55;;;;;;;13.74;95.38;101843.16;6177043;23;20051;-76
2021/09/14 00:02:44;;;;;;;10.50;6.03;;;;;;;13.72;95.47;101839.59;6181405;23;20009;-77
2021/09/14 00:05:10;;;;;;;19.55;6.43;;;;;;;13.73;95.64;101824.63;6183712;23;20013;-77
2021/09/14 00:07:35;;;;;;;12.57;5.72;;;;;;;13.73;95.48;101828.16;6182358;23;20001;-76
2021/09/14 00:10:01;;;;;;;11.55;5.63;;;;;;;13.74;95.87;101823.75;6184137;23;20013;-76
2021/09/14 00:12:27;;;;;;;7.82;5.47;;;;;;;13.80;95.66;101822.09;6180416;23;20722;-75
2021/09/14 00:14:52;;;;;;;11.05;5.82;;;;;;;13.81;95.80;101823.91;6182471;23;19997;-76
2021/09/14 00:17:18;;;;;;;12.40;6.03;;;;;;;13.85;95.61;101823.94;6181283;23;20013;-76
2021/09/14 00:19:43;;;;;;;14.15;5.90;;;;;;;13.87;95.60;101830.19;6156647;23;20013;-78
2021/09/14 00:22:13;;;;;;;10.60;5.75;;;;;;;13.92;95.44;101823.22;6182869;23;20012;-76
2021/09/14 00:24:38;;;;;;;12.80;5.90;;;;;;;13.92;95.17;101820.56;6182224;23;20013;-76
2021/09/14 00:27:03;;;;;;;15.10;6.13;;;;;;;13.91;95.06;101818.78;6181391;23;20011;-77
2021/09/14 00:29:29;;;;;;;14.20;6.40;;;;;;;13.97;95.05;101819.78;6181715;23;20016;-76
2021/09/14 00:31:54;;;;;;;9.68;5.97;;;;;;;14.03;95.16;101824.28;6181801;23;20009;-75
2021/09/14 00:34:20;;;;;;;13.35;5.97;;;;;;;14.06;94.95;101824.34;6183307;23;19997;-77
2021/09/14 00:36:45;;;;;;;12.00;5.90;;;;;;;14.09;94.83;101824.38;6182404;23;20005;-76
2021/09/14 00:39:11;;;;;;;10.65;5.50;;;;;;;14.12;94.46;101815.63;6182599;23;20345;-78
2021/09/14 00:41:36;;;;;;;15.52;6.53;;;;;;;14.12;94.44;101824.47;6180746;23;20009;-77
2021/09/14 00:44:02;;;;;;;12.75;6.88;;;;;;;14.18;94.11;101815.75;6180982;23;20009;-78
2021/09/14 00:46:30;;;;;;;12.05;5.85;;;;;;;14.20;93.95;101815.75;6156011;23;20012;-77
2021/09/14 00:48:56;;;;;;;11.07;5.93;;;;;;;14.22;93.84;101821.97;6181713;23;20017;-77
2021/09/14 00:51:21;;;;;;;11.98;6.90;;;;;;;14.27;93.62;101817.63;6182214;23;20016;-78
2021/09/14 00:53:48;;;;;;;9.55;5.85;;;;;;;14.28;93.45;101808.84;6183064;23;20048;-76
2021/09/14 00:56:33;;;;;;;13.38;5.90;;;;;;;14.28;93.15;101812.41;6182124;23;20013;-77
2021/09/14 00:59:00;;;;;;;11.85;6.22;;;;;;;14.27;93.25;101810.59;6180979;23;20083;-78
2021/09/14 01:01:26;;;;;;;9.85;6.20;;;;;;;14.29;93.14;101815.91;6177439;23;20009;-76
2021/09/14 01:03:51;;;;;;;10.10;6.13;;;;;;;14.30;93.24;101809.75;6183551;23;20005;-75
2021/09/14 01:06:16;;;;;;;11.10;6.18;;;;;;;14.29;92.95;101800.91;6182496;23;20009;-76
2021/09/14 01:08:43;;;;;;;13.18;7.05;;;;;;;14.29;92.96;101798.25;6182967;23;20009;-76
2021/09/14 01:11:08;;;;;;;10.02;6.45;;;;;;;14.31;92.88;101793.00;6182152;23;20344;-78
2021/09/14 01:13:34;;;;;;;12.88;6.15;;;;;;;14.32;92.78;101795.69;6182539;23;20080;-77
2021/09/14 01:16:11;;;;;;;11.27;6.25;;;;;;;14.33;92.73;101792.16;6154320;23;20009;-79
2021/09/14 01:18:37;;;;;;;13.00;6.28;;;;;;;14.32;92.85;101794.78;6182413;23;20274;-76
2021/09/14 01:21:03;;;;;;;15.57;6.20;;;;;;;14.32;92.91;101787.75;6181591;23;20020;-78
2021/09/14 01:23:48;;;;;;;14.02;6.65;;;;;;;14.36;92.54;101780.72;6182263;23;20005;-77
2021/09/14 01:26:13;;;;;;;9.48;5.88;;;;;;;14.38;92.16;101784.31;6180114;23;20017;-77
2021/09/14 01:28:39;;;;;;;10.85;6.70;;;;;;;14.33;92.28;101784.22;6182260;23;20020;-76
2021/09/14 01:31:04;;;;;;;10.18;6.28;;;;;;;14.33;92.33;101778.03;6182587;23;20009;-76
2021/09/14 01:33:30;;;;;;;14.70;6.38;;;;;;;14.29;92.41;101776.22;6181913;23;20413;-77
2021/09/14 01:35:55;;;;;;;10.77;6.60;;;;;;;14.27;92.35;101769.97;6155635;23;20092;-77
2021/09/14 01:38:21;;;;;;;11.82;6.60;;;;;;;14.19;92.88;101776.91;6182919;23;20004;-77
2021/09/14 01:40:48;;;;;;;12.70;6.07;;;;;;;14.23;92.53;101779.66;6181798;23;20420;-77
2021/09/14 01:43:13;;;;;;;11.35;6.43;;;;;;;14.20;92.91;101784.00;6182403;23;20324;-77
2021/09/14 01:45:38;;;;;;;15.13;6.53;;;;;;;14.16;92.90;101778.66;6179798;23;20040;-76
2021/09/14 01:48:04;;;;;;;10.20;6.72;;;;;;;14.16;93.09;101783.94;6182142;23;20040;-77
2021/09/14 01:50:30;;;;;;;13.18;6.18;;;;;;;14.16;93.05;101770.72;6184805;23;20011;-77
2021/09/14 01:52:56;;;;;;;10.20;6.47;;;;;;;14.19;92.63;101769.88;6183547;23;20104;-76
2021/09/14 01:55:21;;;;;;;13.38;6.53;;;;;;;14.19;92.98;101766.31;6183148;23;20213;-78
2021/09/14 01:57:48;;;;;;;12.23;7.18;;;;;;;14.18;93.16;101767.22;6183615;23;20063;-78
2021/09/14 02:00:37;;;;;;;8.75;6.40;;;;;;;14.18;93.12;101762.78;6178650;23;20020;-77
2021/09/14 02:03:27;;;;;;;15.70;7.35;;;;;;;14.19;93.20;101761.03;6184203;23;20001;-76
2021/09/14 02:59:27;;;;;;;16.55;9.43;;;;;;;13.49;95.87;101726.31;6148040;23;19904;-77
2021/09/14 03:01:52;;;;;;;13.02;8.77;;;;;;;13.46;95.87;101728.91;6152050;23;20016;-77
2021/09/14 03:04:18;;;;;;;15.43;9.52;;;;;;;13.40;96.37;101726.16;6182459;23;20040;-77
2021/09/14 03:06:43;;;;;;;20.30;11.05;;;;;;;13.36;96.45;101721.69;6182965;23;20039;-77
2021/09/14 03:09:09;;;;;;;18.92;11.10;;;;;;;13.37;96.22;101715.50;6182895;23;20380;-77
2021/09/14 03:11:34;;;;;;;18.48;10.57;;;;;;;13.35;96.44;101717.22;6184000;23;20039;-76
2021/09/14 03:14:19;;;;;;;16.48;9.77;;;;;;;13.32;96.55;101707.47;6181705;23;20001;-76
2021/09/14 03:16:45;;;;;;;20.65;10.98;;;;;;;13.26;96.84;101702.06;6183340;23;20005;-76
2021/09/14 03:19:10;;;;;;;24.10;10.60;;;;;;;13.31;96.60;101695.09;6184013;23;20051;-78
2021/09/14 03:21:36;;;;;;;17.60;9.90;;;;;;;13.29;96.63;101690.66;6183403;23;20063;-77
2021/09/14 03:24:01;;;;;;;18.88;10.80;;;;;;;13.26;96.61;101690.59;6180048;23;20337;-76
2021/09/14 03:26:26;;;;;;;14.68;10.38;;;;;;;13.25;96.69;101683.53;6183084;23;20029;-76
2021/09/14 03:28:52;;;;;;;19.25;9.80;;;;;;;13.29;96.34;101685.38;6183950;23;20005;-75
2021/09/14 03:31:17;;;;;;;24.88;10.82;;;;;;;13.26;96.44;101672.09;6183594;23;20088;-77
2021/09/14 03:34:03;;;;;;;17.70;10.48;;;;;;;13.24;96.51;101665.88;6183885;23;20332;-77
2021/09/14 03:36:28;;;;;;;18.80;10.52;;;;;;;13.21;96.54;101676.41;6183149;23;20013;-78
2021/09/14 03:38:54;;;;;;;14.80;10.15;;;;;;;13.22;96.35;101671.13;6182025;23;20009;-75
2021/09/14 03:41:19;;;;;;;17.88;11.50;;;;;;;13.18;96.92;101671.06;6183545;23;20009;-78
2021/09/14 03:43:44;;;;;;;22.52;10.77;;;;;;;13.20;96.40;101666.69;6181828;23;20012;-77
2021/09/14 03:46:10;;;;;;;16.77;10.55;;;;;;;13.15;96.53;101672.78;6183243;23;20005;-76
2021/09/14 03:48:35;;;;;;;20.80;11.43;;;;;;;13.12;97.01;101664.78;6183588;23;20021;-78
2021/09/14 03:51:21;;;;;;;19.35;10.70;;;;;;;13.14;96.79;101663.09;6182516;23;20377;-76
2021/09/14 03:53:46;;;;;;;21.77;10.98;;;;;;;13.13;96.50;101663.94;6182251;23;20008;-77
2021/09/14 03:56:11;;;;;;;20.80;11.40;;;;;;;13.09;96.33;101667.38;6181376;23;20001;-78
2021/09/14 03:58:37;;;;;;;17.65;10.70;;;;;;;13.08;96.42;101667.38;6182806;23;20424;-77
2021/09/14 04:01:02;;;;;;;22.67;11.68;;;;;;;13.07;96.47;101668.22;6177979;23;20634;-78
2021/09/14 04:06:23;;;;;;;19.35;10.32;;;;;;;13.02;96.67;101654.00;6193364;23;20099;-78
2021/09/14 04:09:10;;;;;;;17.40;11.23;;;;;;;12.99;96.77;101657.47;6182905;23;20117;-77
2021/09/14 04:11:35;;;;;;;17.30;10.43;;;;;;;13.01;96.69;101657.50;6182469;23;20039;-79
2021/09/14 04:14:01;;;;;;;20.42;11.10;;;;;;;12.97;96.92;101656.59;6180621;23;20325;-78
2021/09/14 04:16:26;;;;;;;22.75;11.70;;;;;;;12.95;97.06;101663.56;6179819;23;20080;-79
2021/09/14 04:18:52;;;;;;;16.95;10.73;;;;;;;12.94;97.17;101672.34;6183301;23;20012;-77
2021/09/14 04:21:17;;;;;;;20.27;11.55;;;;;;;12.86;97.04;101666.03;6182692;23;20012;-78
2021/09/14 04:23:43;;;;;;;24.20;11.98;;;;;;;12.82;97.11;101673.88;6183397;23;20353;-77
2021/09/14 04:26:08;;;;;;;21.02;11.82;;;;;;;12.78;97.33;101666.75;6156005;23;20013;-79
2021/09/14 04:28:34;;;;;;;26.27;11.82;;;;;;;12.79;96.89;101679.13;6182770;23;20017;-78
2021/09/14 04:30:59;;;;;;;26.10;11.48;;;;;;;12.76;97.48;101671.09;6181207;23;20079;-78
2021/09/14 04:33:25;;;;;;;19.45;11.65;;;;;;;12.79;97.39;101665.91;6182593;23;20031;-78
2021/09/14 04:35:51;;;;;;;16.50;10.25;;;;;;;12.79;96.94;101658.00;6182474;23;20477;-78
2021/09/14 04:38:17;;;;;;;19.80;11.45;;;;;;;12.76;97.25;101655.25;6182895;23;20005;-78
2021/09/14 04:40:42;;;;;;;21.95;11.52;;;;;;;12.73;97.42;101657.84;6180705;23;20056;-76
2021/09/14 04:43:07;;;;;;;18.27;12.05;;;;;;;12.71;97.40;101661.31;6182343;23;20561;-76
2021/09/14 04:45:33;;;;;;;21.92;12.23;;;;;;;12.67;97.86;101663.03;6181701;23;20017;-77
2021/09/14 04:47:58;;;;;;;19.80;12.57;;;;;;;12.68;97.21;101654.22;6182374;23;20088;-75
2021/09/14 04:50:24;;;;;;;22.73;14.43;;;;;;;12.69;97.54;101656.00;6180470;23;20013;-77
2021/09/14 04:52:49;;;;;;;20.23;12.38;;;;;;;12.69;97.91;101661.28;6182545;23;20001;-78
2021/09/14 04:55:15;;;;;;;23.55;12.68;;;;;;;12.72;97.50;101655.19;6181842;23;20009;-76
2021/09/14 04:57:40;;;;;;;23.70;11.93;;;;;;;12.68;97.58;101654.22;6183135;23;20011;-76
2021/09/14 05:00:14;;;;;;;17.73;12.10;;;;;;;12.72;97.50;101660.47;6177063;23;20029;-78
2021/09/14 05:02:40;;;;;;;22.65;12.30;;;;;;;12.69;97.66;101657.75;6156253;23;20016;-76
2021/09/14 05:05:06;;;;;;;22.08;12.32;;;;;;;12.71;97.86;101656.94;6180896;23;20084;-77
2021/09/14 05:07:31;;;;;;;27.27;12.50;;;;;;;12.73;97.47;101651.69;6182199;23;20064;-77
2021/09/14 05:09:57;;;;;;;23.73;12.60;;;;;;;12.68;97.92;101651.56;6180885;23;20076;-77
2021/09/14 05:12:22;;;;;;;21.48;12.68;;;;;;;12.71;97.62;101654.31;6181655;23;20005;-78
2021/09/14 05:14:47;;;;;;;24.27;12.68;;;;;;;12.73;97.59;101652.56;6179981;23;20005;-77
2021/09/14 05:17:13;;;;;;;22.00;12.43;;;;;;;12.73;97.75;101654.31;6182066;23;20036;-78
2021/09/14 05:19:38;;;;;;;26.55;13.15;;;;;;;12.73;97.24;101660.50;6183023;23;20432;-76
2021/09/14 05:22:05;;;;;;;23.33;13.25;;;;;;;12.71;97.58;101659.59;6155123;23;20009;-76
2021/09/14 05:24:31;;;;;;;21.77;13.55;;;;;;;12.69;97.84;101663.03;6184678;23;20023;-76
2021/09/14 05:26:58;;;;;;;27.95;14.02;;;;;;;12.68;97.63;101664.78;6184409;23;20072;-77
2021/09/14 05:29:24;;;;;;;24.15;13.43;;;;;;;12.67;97.70;101663.03;6157232;23;20337;-76
2021/09/14 05:31:58;;;;;;;27.38;14.35;;;;;;;12.68;97.70;101659.50;6182369;23;20019;-76
2021/09/14 05:34:23;;;;;;;;;;;;;;;12.69;97.79;101656.00;6185522;23;20013;-78
2021/09/14 05:36:49;;;;;;;22.92;12.95;;;;;;;12.69;97.69;101645.44;6181878;23;20212;-77
2021/09/14 05:39:15;;;;;;;23.98;13.15;;;;;;;12.74;97.68;101646.44;6182022;23;20000;-78
2021/09/14 05:41:40;;;;;;;20.67;11.88;;;;;;;12.76;97.72;101634.13;6182985;23;20067;-75
2021/09/14 05:44:05;;;;;;;21.58;12.68;;;;;;;12.77;97.69;101628.00;6184111;23;20364;-77
2021/09/14 05:46:31;;;;;;;22.08;12.95;;;;;;;12.76;97.40;101623.56;6184007;23;20080;-75
2021/09/14 05:48:57;;;;;;;24.80;13.15;;;;;;;12.81;97.49;101621.91;6185041;23;20372;-78
2021/09/14 05:51:22;;;;;;;24.08;11.60;;;;;;;12.85;97.38;101614.97;6184587;23;20056;-78
2021/09/14 05:53:48;;;;;;;25.15;12.95;;;;;;;12.94;97.17;101619.50;6185296;23;20013;-76
2021/09/14 05:56:13;;;;;;;22.00;12.00;;;;;;;12.94;96.99;101619.50;6183300;23;20020;-79
2021/09/14 05:58:39;;;;;;;23.67;13.18;;;;;;;12.98;96.65;101621.34;6132330;23;20441;-79
2021/09/14 06:01:04;;;;;;;28.75;12.52;;;;;;;12.96;96.49;101612.53;6179091;23;20012;-77
2021/09/14 06:03:33;;;;;;;22.10;11.85;;;;;;;12.99;96.52;101613.47;6184527;23;20001;-80
2021/09/14 06:05:58;;;;;;;19.98;12.45;;;;;;;13.03;96.56;101614.41;6185166;23;20016;-76
2021/09/14 06:08:23;;;;;;;25.60;13.07;;;;;;;13.07;96.75;101615.38;6184681;23;20512;-78
2021/09/14 06:11:09;;;;;;;26.70;12.50;;;;;;;13.12;96.37;101613.72;6183885;23;20063;-77
2021/09/14 06:13:34;;;;;;;24.50;11.40;;;;;;;13.16;96.36;101611.13;6182686;23;20429;-75
2021/09/14 06:16:19;;;;;;;20.58;12.38;;;;;;;13.21;95.94;101599.75;6184767;23;20088;-81
2021/09/14 06:18:45;;;;;;;16.55;12.23;;;;;;;13.25;95.78;101601.59;6182669;23;20020;-79
2021/09/14 06:21:18;;;;;;;21.30;12.20;;;;;;;13.31;95.66;101604.34;6183288;23;20005;-78
2021/09/14 06:23:44;;;;;;;20.17;12.07;;;;;;;13.30;95.16;101608.72;6183436;23;20087;-76
2021/09/14 06:26:09;;;;;;;19.55;12.23;;;;;;;13.33;95.34;101605.25;6184576;23;20009;-77
2021/09/14 06:28:34;;;;;;;18.45;13.10;;;;;;;13.40;95.08;101614.22;6185180;23;20016;-77
2021/09/14 06:31:00;;;;;;;21.65;12.50;;;;;;;13.40;94.90;101609.84;6180580;23;20508;-78
2021/09/14 06:33:25;;;;;;;21.02;13.20;;;;;;;13.43;94.60;101616.91;6183681;23;20005;-76
2021/09/14 06:35:51;;;;;;;20.20;11.93;;;;;;;13.41;94.40;101611.59;6183742;23;20028;-75
2021/09/14 06:38:17;;;;;;;17.70;11.70;;;;;;;13.42;94.54;101610.75;6183811;23;20009;-76
2021/09/14 06:40:42;;;;;;;21.75;12.18;;;;;;;13.47;94.22;101611.72;6184017;23;20005;-76
2021/09/14 06:43:07;;;;;;;18.30;12.60;;;;;;;13.57;93.94;101612.75;6182712;23;20008;-75
2021/09/14 06:45:33;;;;;;;20.80;12.77;;;;;;;13.62;93.67;101618.13;6183335;23;20019;-77
2021/09/14 06:47:58;;;;;;;20.15;11.93;;;;;;;13.65;93.72;101623.47;6180180;23;20013;-76
2021/09/14 06:50:24;;;;;;;18.70;11.70;;;;;;;13.78;93.40;101621.91;6183307;23;20048;-74
2021/09/14 06:52:49;;;;;;;17.02;11.55;;;;;;;13.83;93.33;101615.81;6184308;23;20063;-76
2021/09/14 06:55:15;;;;;;;20.75;12.13;;;;;;;13.86;92.84;101609.69;6182786;23;20464;-77
2021/09/14 06:57:41;;;;;;;16.65;10.90;;;;;;;13.92;92.61;101608.91;6180025;23;20001;-77
2021/09/14 07:00:07;;;;;;;18.73;12.27;;;;;;;14.06;92.04;101593.22;6176217;23;20298;-76
2021/09/14 07:02:33;;;;;;;19.42;12.35;;;;;;;14.10;91.90;101603.84;6175428;23;20005;-77
2021/09/14 07:04:58;;;;;;;17.67;12.30;;;;;;;14.14;91.92;101610.09;6179028;23;20028;-78
2021/09/14 07:07:24;;;;;;;17.88;12.05;;;;;;;14.10;91.97;101606.50;6180542;23;20039;-78
2021/09/14 07:09:49;;;;;;;24.25;12.65;;;;;;;14.16;92.21;101603.97;6181301;23;20008;-76
2021/09/14 07:12:15;;;;;;;18.02;12.18;;;;;;;14.19;91.84;101597.81;6180577;23;20009;-77
2021/09/14 07:14:40;;;;;;;18.80;12.35;;;;;;;14.34;91.06;101591.84;6180101;23;20048;-75
2021/09/14 07:17:06;;;;;;;16.80;11.35;;;;;;;14.31;91.35;101597.06;6180633;23;20005;-78
2021/09/14 07:19:31;;;;;;;22.77;12.70;;;;;;;14.41;91.65;101603.41;6180520;23;20024;-78
2021/09/14 07:21:57;;;;;;;20.40;12.63;;;;;;;14.36;90.80;101600.69;6180544;23;20013;-77
2021/09/14 07:24:22;;;;;;;22.30;12.98;;;;;;;14.48;90.93;101597.31;6180045;23;20559;-74
2021/09/14 07:26:47;;;;;;;18.35;12.30;;;;;;;14.51;90.61;101594.69;6180940;23;20013;-75
2021/09/14 07:29:13;;;;;;;18.50;13.43;;;;;;;14.56;90.77;101608.00;6180831;23;20009;-78
2021/09/14 07:31:41;;;;;;;21.08;13.57;;;;;;;14.60;90.82;101597.44;6180368;23;20043;-74
2021/09/14 07:34:06;;;;;;;20.50;13.23;;;;;;;14.69;90.52;101586.13;6180066;23;20007;-76
2021/09/14 07:36:32;;;;;;;19.67;12.65;;;;;;;14.75;90.38;101588.81;6181074;23;20037;-75
2021/09/14 07:38:57;;;;;;;21.90;14.18;;;;;;;14.80;90.21;101587.13;6180433;23;20005;-76
2021/09/14 07:41:23;;;;;;;22.63;14.00;;;;;;;14.96;89.42;101593.50;6181251;23;20013;-77
2021/09/14 07:43:48;;;;;;;20.65;14.38;;;;;;;15.15;89.31;101589.25;6179906;23;20009;-76
2021/09/14 07:46:14;;;;;;;20.02;14.00;;;;;;;15.42;88.12;101590.34;6182188;23;20317;-76
2021/09/14 07:48:39;;;;;;;20.25;13.52;;;;;;;15.68;87.37;101581.72;6180974;23;20080;-75
2021/09/14 07:51:04;;;;;;;22.08;13.48;;;;;;;15.87;86.25;101584.53;6180898;23;20000;-74
2021/09/14 07:53:30;;;;;;;23.38;14.45;;;;;;;16.07;86.09;101587.31;6180090;23;20016;-75
2021/09/14 07:55:56;;;;;;;19.33;14.75;;;;;;;16.15;84.49;101581.16;6183921;23;20063;-75
2021/09/14 07:58:21;;;;;;;20.73;14.30;;;;;;;16.24;83.98;101580.34;6186549;23;20100;-75
2021/09/14 08:00:47;;;;;;;22.58;16.02;;;;;;;16.42;83.91;101578.66;6178539;23;20009;-76
2021/09/14 08:03:12;;;;;;;22.45;15.40;;;;;;;16.48;82.92;101570.69;6180840;23;20012;-77
2021/09/14 08:05:39;;;;;;;22.10;15.75;;;;;;;16.60;83.14;101568.06;6181496;23;20008;-75
2021/09/14 08:08:08;;;;;;;23.63;15.85;;;;;;;16.78;82.91;101569.91;6155261;23;20080;-76
2021/09/14 08:10:35;;;;;;;22.73;16.70;;;;;;;16.92;82.06;101577.06;6176350;23;20444;-78
2021/09/14 08:13:02;;;;;;;27.10;15.88;;;;;;;16.91;80.66;101562.88;6153432;23;20090;-78
2021/09/14 08:15:27;;;;;;;23.67;16.83;;;;;;;17.00;81.39;101572.66;6180005;23;20342;-77
2021/09/14 08:17:53;;;;;;;26.13;17.13;;;;;;;17.14;80.78;101580.66;6180349;23;20088;-77
2021/09/14 08:20:18;;;;;;;24.00;16.45;;;;;;;17.30;79.95;101576.22;6180413;23;20455;-76
2021/09/14 08:22:45;;;;;;;21.15;16.17;;;;;;;17.31;79.75;101564.72;6180265;23;20063;-76
2021/09/14 08:25:11;;;;;;;21.50;15.85;;;;;;;17.36;79.93;101576.22;6179681;23;20051;-76
2021/09/14 08:27:37;;;;;;;19.75;15.32;;;;;;;17.43;78.74;101567.38;6180183;23;20084;-77
2021/09/14 08:30:04;;;;;;;22.45;15.95;;;;;;;17.49;79.55;101572.66;6180688;23;20052;-76
2021/09/14 08:32:29;;;;;;;20.67;16.27;;;;;;;17.44;78.68;101566.47;6180338;23;20004;-76
2021/09/14 08:34:55;;;;;;;19.13;15.32;;;;;;;17.54;78.92;101575.34;6180523;23;20001;-76
2021/09/14 08:37:20;;;;;;;19.15;15.45;;;;;;;17.65;79.20;101583.31;6181204;23;20002;-75
2021/09/14 08:39:46;;;;;;;22.15;15.80;;;;;;;17.78;78.46;101585.06;6180271;23;20017;-75
2021/09/14 08:42:13;;;;;;;22.52;15.95;;;;;;;17.94;78.07;101585.06;6181741;23;20079;-77
2021/09/14 08:44:42;;;;;;;23.20;16.73;;;;;;;18.11;77.92;101577.03;6178920;23;20088;-76
2021/09/14 08:47:08;;;;;;;20.73;15.13;;;;;;;18.30;76.72;101572.53;6180223;23;20005;-77
2021/09/14 08:49:34;;;;;;;21.75;14.85;;;;;;;18.52;76.81;101582.22;6181212;23;20336;-76
2021/09/14 08:52:00;;;;;;;18.85;14.65;;;;;;;18.76;74.97;101582.09;6181083;23;20024;-76
2021/09/14 08:54:25;;;;;;;16.52;14.18;;;;;;;18.85;74.35;101571.38;6180384;23;20001;-75
2021/09/14 08:56:51;;;;;;;21.77;14.93;;;;;;;18.92;74.18;101580.25;6181199;23;20425;-78
2021/09/14 08:59:48;;;;;;;21.95;15.55;;;;;;;18.89;73.76;101582.94;6181777;23;20005;-76
2021/09/14 09:02:20;;;;;;;20.27;14.70;;;;;;;18.97;73.46;101573.13;6151403;23;20012;-76
2021/09/14 09:04:59;;;;;;;23.30;15.27;;;;;;;19.09;73.67;101570.38;6175661;23;20011;-76
2021/09/14 09:07:40;;;;;;;21.08;13.82;;;;;;;19.24;72.30;101563.16;6182523;23;20328;-76
2021/09/14 09:10:08;;;;;;;18.10;13.98;;;;;;;19.39;72.21;101563.00;6185065;23;20013;-75
2021/09/14 09:12:36;;;;;;;20.60;14.73;;;;;;;19.66;72.01;101575.22;6181476;23;20084;-76
2021/09/14 09:15:02;;;;;;;24.58;15.20;;;;;;;19.85;71.62;101567.94;6182419;23;20515;-75
2021/09/14 09:17:28;;;;;;;20.80;14.45;;;;;;;20.03;70.52;101560.63;6184676;23;20396;-76
2021/09/14 09:19:56;;;;;;;18.98;14.02;;;;;;;20.01;68.15;101552.63;6184869;23;20009;-75
2021/09/14 09:22:23;;;;;;;19.80;14.13;;;;;;;19.99;69.25;101564.25;6184367;23;20011;-75
2021/09/14 09:24:50;;;;;;;21.02;14.60;;;;;;;20.19;69.98;101575.59;6183530;23;20451;-75
2021/09/14 09:27:20;;;;;;;18.08;13.93;;;;;;;20.24;69.25;101558.59;6184977;23;20001;-74
2021/09/14 09:29:57;;;;;;;19.60;13.57;;;;;;;20.62;68.68;101544.75;6184771;23;20005;-74
2021/09/14 09:32:22;;;;;;;19.13;14.30;;;;;;;20.60;68.00;101534.97;6183829;23;20347;-76
2021/09/14 09:34:57;;;;;;;18.70;14.80;;;;;;;20.88;66.94;101539.03;6175610;23;20005;-75
2021/09/14 09:37:22;;;;;;;20.10;12.93;;;;;;;21.63;63.88;101530.69;6154795;23;20318;-75
2021/09/14 09:39:48;;;;;;;14.00;12.15;;;;;;;21.94;63.72;101530.09;6181452;23;20541;-75
2021/09/14 09:42:15;;;;;;;20.02;12.07;;;;;;;22.85;60.97;101521.91;6181318;23;20339;-75
2021/09/14 09:44:52;;;;;;;15.25;11.35;;;;;;;23.98;57.74;101508.25;6181721;23;20005;-77
2021/09/14 09:47:18;;;;;;;19.02;12.25;;;;;;;23.69;56.71;101515.31;6180534;23;20021;-76
2021/09/14 09:49:48;;;;;;;14.85;12.65;;;;;;;23.53;58.17;101518.41;6181504;23;20080;-75
2021/09/14 09:52:15;;;;;;;17.17;12.30;;;;;;;23.73;57.92;101514.31;6181504;23;20052;-75
2021/09/14 09:54:40;;;;;;;13.30;10.95;;;;;;;24.84;53.25;101502.97;6181126;23;20005;-77
2021/09/14 09:57:09;;;;;;;13.25;11.02;;;;;;;25.94;49.70;101504.56;6180589;23;20036;-76
2021/09/14 09:59:35;;;;;;;16.45;10.63;;;;;;;26.94;48.48;101513.31;6181048;23;20009;-76
2021/09/14 10:02:22;;;;;;;15.40;10.98;;;;;;;27.27;46.12;101488.50;6177471;23;20177;-76
2021/09/14 10:05:02;;;;;;;14.05;10.05;;;;;;;27.67;44.83;101485.88;6182957;23;20124;-75
2021/09/14 10:07:30;;;;;;;15.80;10.73;;;;;;;27.32;44.59;101483.78;6184485;23;20005;-78
2021/09/14 10:09:57;;;;;;;15.43;10.85;;;;;;;27.47;44.02;101474.16;6183055;23;20016;-76
2021/09/14 10:12:26;;;;;;;14.77;10.88;;;;;;;27.51;44.70;101482.97;6183791;23;20048;-76
2021/09/14 10:15:00;;;;;;;14.23;11.07;;;;;;;27.95;44.46;101484.63;6158469;23;20429;-75
2021/09/14 10:17:26;;;;;;;12.48;10.45;;;;;;;28.27;42.85;101488.56;6184434;23;20009;-77
2021/09/14 10:19:52;;;;;;;13.40;10.13;;;;;;;28.46;42.88;101479.53;6184822;23;20380;-78
2021/09/14 10:22:36;;;;;;;15.70;10.77;;;;;;;28.22;42.39;101475.25;6184521;23;20039;-76
2021/09/14 10:25:03;;;;;;;11.98;10.35;;;;;;;29.01;42.18;101481.38;6183303;23;20088;-75
2021/09/14 10:27:41;;;;;;;11.32;10.07;;;;;;;28.69;40.80;101478.44;6183367;23;20409;-76
2021/09/14 10:30:09;;;;;;;17.17;11.70;;;;;;;28.59;41.55;101470.72;6184822;23;20007;-76
2021/09/14 10:32:43;;;;;;;14.98;10.45;;;;;;;28.50;42.55;101481.16;6185056;23;20012;-76
2021/09/14 10:35:10;;;;;;;13.18;9.73;;;;;;;29.31;40.17;101469.94;6184479;23;20024;-77
2021/09/14 10:37:36;;;;;;;13.95;10.30;;;;;;;29.47;41.54;101479.00;6184389;23;20340;-76
2021/09/14 10:40:14;;;;;;;13.10;9.75;;;;;;;29.84;40.72;101482.44;6183939;23;20009;-76
2021/09/14 10:42:47;;;;;;;15.93;10.00;;;;;;;29.88;38.19;101470.47;6183980;23;20008;-76
2021/09/14 10:45:15;;;;;;;15.45;10.77;;;;;;;29.41;39.46;101460.31;6185059;23;20440;-76
2021/09/14 10:47:46;;;;;;;16.52;11.80;;;;;;;28.03;41.73;101460.84;6184106;23;20084;-77
2021/09/14 10:50:15;;;;;;;14.07;11.00;;;;;;;27.91;43.11;101452.28;6183608;23;20005;-77
2021/09/14 10:52:58;;;;;;;16.13;11.48;;;;;;;28.32;42.34;101456.72;6183558;23;20016;-76
2021/09/14 10:55:23;;;;;;;;;;;;;;;29.03;41.00;101442.41;6184885;23;20084;-77
2021/09/14 10:57:57;;;;;;;11.48;9.15;;;;;;;29.84;40.43;101451.72;6182915;23;19949;-76
2021/09/14 11:00:31;;;;;;;14.90;11.43;;;;;;;27.83;44.58;101438.25;6177540;23;20464;-75
2021/09/14 11:03:01;;;;;;;12.75;10.70;;;;;;;27.85;42.98;101436.38;6184212;23;20005;-75
2021/09/14 11:05:29;;;;;;;13.23;11.02;;;;;;;26.90;45.61;101438.75;6156997;23;20032;-77
2021/09/14 11:08:24;;;;;;;11.30;9.88;;;;;;;27.90;44.63;101444.25;6183113;23;20009;-76
2021/09/14 11:10:56;;;;;;;13.35;10.27;;;;;;;28.81;41.16;101420.94;6183026;23;20553;-76
2021/09/14 11:13:23;;;;;;;15.68;10.95;;;;;;;29.00;40.31;101415.44;6182421;23;20428;-76
2021/09/14 11:16:02;;;;;;;12.80;9.18;;;;;;;29.73;39.19;101414.34;6182663;23;20491;-77
2021/09/14 11:18:30;;;;;;;10.18;9.02;;;;;;;29.68;38.55;101405.56;6182580;23;20136;-77
2021/09/14 11:21:08;;;;;;;13.20;8.27;;;;;;;30.37;36.62;101398.09;6182661;23;20009;-77
2021/09/14 11:23:34;;;;;;;10.88;8.75;;;;;;;30.43;36.86;101400.47;6176677;23;20435;-77
2021/09/14 11:26:11;;;;;;;12.48;9.35;;;;;;;30.39;37.51;101397.03;6180145;23;20013;-76
2021/09/14 11:28:39;;;;;;;9.73;7.72;;;;;;;30.36;36.96;101399.94;6174268;23;20035;-76
2021/09/14 11:31:11;;;;;;;12.50;8.80;;;;;;;31.11;36.29;101401.91;6175456;23;20005;-76
2021/09/14 11:33:40;;;;;;;;;;;;;;;31.10;37.62;101390.16;6175090;23;20075;-75
2021/09/14 11:36:07;;;;;;;9.55;8.32;;;;;;;31.76;34.28;101390.59;6181956;23;19912;-78
2021/09/14 11:38:32;;;;;;;12.20;8.73;;;;;;;30.98;35.39;101398.16;6181388;23;20005;-75
2021/09/14 11:41:19;;;;;;;15.55;9.95;;;;;;;30.82;36.83;101392.78;6180758;23;20126;-78
2021/09/14 11:43:46;;;;;;;11.23;9.02;;;;;;;30.84;37.96;101401.72;6181028;23;20005;-76
2021/09/14 11:46:31;;;;;;;15.98;9.98;;;;;;;30.93;36.52;101396.59;6181895;23;20013;-77
2021/09/14 11:49:16;;;;;;;13.57;9.88;;;;;;;31.45;37.17;101392.50;6180538;23;20390;-78
2021/09/14 11:52:07;;;;;;;12.82;9.60;;;;;;;30.99;35.15;101378.19;6179099;23;20050;-76
2021/09/14 11:54:35;;;;;;;15.95;8.52;;;;;;;31.04;37.82;101386.97;6180741;23;20029;-76
2021/09/14 11:57:01;;;;;;;11.45;9.10;;;;;;;31.06;36.56;101379.56;6182190;23;20032;-75
2021/09/14 11:59:37;;;;;;;13.70;11.27;;;;;;;29.52;38.92;101375.69;6171422;23;20021;-76
2021/09/14 12:02:04;;;;;;;11.27;9.52;;;;;;;28.80;41.12;101386.69;6174248;23;20016;-76
2021/09/14 12:04:29;;;;;;;13.77;9.50;;;;;;;28.07;43.11;101386.69;6181172;23;20001;-76
2021/09/14 12:06:58;;;;;;;14.90;9.63;;;;;;;27.66;42.60;101381.38;6180125;23;20008;-76
2021/09/14 12:09:25;;;;;;;10.57;9.50;;;;;;;27.89;44.60;101386.59;6181003;23;20084;-75
2021/09/14 12:12:08;;;;;;;15.27;11.10;;;;;;;28.46;44.10;101388.38;6181596;23;20031;-77